KCUH/CUH METAR and TAF weather

Enter ICAO airport designator
Station Type Date Time Source
KCUH METAR 2021/09/24 05:55 UTC NOAA

KCUH 240555Z AUTO 00000KT 10SM CLR 14/08 A3003 RMK AO2 T01380080 10258 20130 402830070


Station Type Date Time Source
KCUH Decoded METAR 2021/09/24 05:55 UTC NOAA

Cushing, Cushing Municipal Airport, OK, United States (KCUH) 35-56-59N 096-46-22W
Sep 24, 2021 - 01:55 AM EDT / 2021.09.24 0555 UTC
Wind: Calm:0
Visibility: 10 mile(s):0
Sky conditions: clear
Temperature: 56.8 F (13.8 C)
Dew Point: 46.4 F (8.0 C)
Relative Humidity: 67%
Pressure (altimeter): 30.03 in. Hg (1016 hPa)
ob: KCUH 240555Z AUTO 00000KT 10SM CLR 14/08 A3003 RMK AO2 T01380080 10258 20130 402830070
cycle: 6

Station Type Date Time Source
KCUH TAF UTC NOAA

Error!

Example: see airport list